sensor_id;sensor_type;location;lat;lon;timestamp;temperature;humidity
10233;DHT22;5161;48.174;11.756;2023-03-01T00:01:49;4.00;62.10
10233;DHT22;5161;48.174;11.756;2023-03-01T00:04:15;4.00;62.30
10233;DHT22;5161;48.174;11.756;2023-03-01T00:06:42;4.00;62.20
10233;DHT22;5161;48.174;11.756;2023-03-01T00:09:11;4.00;62.30
10233;DHT22;5161;48.174;11.756;2023-03-01T00:11:37;4.00;62.30
10233;DHT22;5161;48.174;11.756;2023-03-01T00:14:03;4.00;62.30
10233;DHT22;5161;48.174;11.756;2023-03-01T00:16:42;4.00;62.20
10233;DHT22;5161;48.174;11.756;2023-03-01T00:19:20;4.00;62.40
10233;DHT22;5161;48.174;11.756;2023-03-01T00:21:47;4.00;62.40
10233;DHT22;5161;48.174;11.756;2023-03-01T00:24:13;4.00;62.10
10233;DHT22;5161;48.174;11.756;2023-03-01T00:26:39;4.00;62.20
10233;DHT22;5161;48.174;11.756;2023-03-01T00:29:04;4.00;62.20
10233;DHT22;5161;48.174;11.756;2023-03-01T00:31:32;4.00;62.60
10233;DHT22;5161;48.174;11.756;2023-03-01T00:34:01;3.90;62.30
10233;DHT22;5161;48.174;11.756;2023-03-01T00:36:32;3.90;62.30
10233;DHT22;5161;48.174;11.756;2023-03-01T00:38:59;3.90;62.40
10233;DHT22;5161;48.174;11.756;2023-03-01T00:41:24;3.90;62.10
10233;DHT22;5161;48.174;11.756;2023-03-01T00:43:52;3.90;62.30
10233;DHT22;5161;48.174;11.756;2023-03-01T00:46:20;3.90;62.20
10233;DHT22;5161;48.174;11.756;2023-03-01T00:48:46;3.90;62.30
10233;DHT22;5161;48.174;11.756;2023-03-01T00:51:12;3.90;62.20
10233;DHT22;5161;48.174;11.756;2023-03-01T00:53:39;3.90;62.30
10233;DHT22;5161;48.174;11.756;2023-03-01T00:56:06;3.90;62.20
10233;DHT22;5161;48.174;11.756;2023-03-01T00:58:32;3.90;62.30
10233;DHT22;5161;48.174;11.756;2023-03-01T01:00:58;3.80;62.00
10233;DHT22;5161;48.174;11.756;2023-03-01T01:03:24;3.80;62.30
10233;DHT22;5161;48.174;11.756;2023-03-01T01:05:53;3.80;62.40
10233;DHT22;5161;48.174;11.756;2023-03-01T01:08:19;3.90;62.60
10233;DHT22;5161;48.174;11.756;2023-03-01T01:10:45;3.90;62.40
10233;DHT22;5161;48.174;11.756;2023-03-01T01:13:11;3.80;62.40
10233;DHT22;5161;48.174;11.756;2023-03-01T01:15:37;3.80;62.30
10233;DHT22;5161;48.174;11.756;2023-03-01T01:18:03;3.80;62.30
10233;DHT22;5161;48.174;11.756;2023-03-01T01:20:29;3.90;62.50
10233;DHT22;5161;48.174;11.756;2023-03-01T01:22:54;3.90;62.50
10233;DHT22;5161;48.174;11.756;2023-03-01T01:25:20;3.90;62.40
10233;DHT22;5161;48.174;11.756;2023-03-01T01:27:46;3.80;62.30
10233;DHT22;5161;48.174;11.756;2023-03-01T01:30:12;3.80;62.30
10233;DHT22;5161;48.174;11.756;2023-03-01T01:32:38;3.80;62.50
10233;DHT22;5161;48.174;11.756;2023-03-01T01:35:04;3.80;62.50
10233;DHT22;5161;48.174;11.756;2023-03-01T01:37:30;3.80;62.50
10233;DHT22;5161;48.174;11.756;2023-03-01T01:39:59;3.80;62.60
10233;DHT22;5161;48.174;11.756;2023-03-01T01:42:25;3.80;62.50
10233;DHT22;5161;48.174;11.756;2023-03-01T01:48:01;3.80;63.80
10233;DHT22;5161;48.174;11.756;2023-03-01T01:50:28;3.70;63.00
10233;DHT22;5161;48.174;11.756;2023-03-01T01:53:07;3.70;62.50
10233;DHT22;5161;48.174;11.756;2023-03-01T01:55:36;3.70;62.60
10233;DHT22;5161;48.174;11.756;2023-03-01T01:58:06;3.70;62.60
10233;DHT22;5161;48.174;11.756;2023-03-01T02:00:33;3.70;62.80
10233;DHT22;5161;48.174;11.756;2023-03-01T02:03:08;3.70;62.60
10233;DHT22;5161;48.174;11.756;2023-03-01T02:05:58;3.80;63.10
10233;DHT22;5161;48.174;11.756;2023-03-01T02:08:28;3.80;64.00
10233;DHT22;5161;48.174;11.756;2023-03-01T02:10:56;3.80;62.90
10233;DHT22;5161;48.174;11.756;2023-03-01T02:13:22;3.80;62.70
10233;DHT22;5161;48.174;11.756;2023-03-01T02:15:48;3.80;62.60
10233;DHT22;5161;48.174;11.756;2023-03-01T02:18:17;3.80;62.50
10233;DHT22;5161;48.174;11.756;2023-03-01T02:23:24;3.80;63.70
10233;DHT22;5161;48.174;11.756;2023-03-01T02:28:53;3.80;63.80
10233;DHT22;5161;48.174;11.756;2023-03-01T02:31:20;3.70;62.50
10233;DHT22;5161;48.174;11.756;2023-03-01T02:34:07;3.70;62.60
10233;DHT22;5161;48.174;11.756;2023-03-01T02:36:53;3.70;62.60
10233;DHT22;5161;48.174;11.756;2023-03-01T02:39:25;3.70;63.80
10233;DHT22;5161;48.174;11.756;2023-03-01T02:41:54;3.70;63.00
10233;DHT22;5161;48.174;11.756;2023-03-01T02:44:21;3.70;62.70
10233;DHT22;5161;48.174;11.756;2023-03-01T02:46:52;3.70;62.60
10233;DHT22;5161;48.174;11.756;2023-03-01T02:49:29;3.70;63.00
10233;DHT22;5161;48.174;11.756;2023-03-01T02:52:07;3.70;63.10
10233;DHT22;5161;48.174;11.756;2023-03-01T02:54:47;3.70;63.20
10233;DHT22;5161;48.174;11.756;2023-03-01T02:57:14;3.70;63.20
10233;DHT22;5161;48.174;11.756;2023-03-01T02:59:40;3.70;62.30
10233;DHT22;5161;48.174;11.756;2023-03-01T03:02:21;3.70;62.30
10233;DHT22;5161;48.174;11.756;2023-03-01T03:07:37;3.60;62.20
10233;DHT22;5161;48.174;11.756;2023-03-01T03:10:05;3.60;62.40
10233;DHT22;5161;48.174;11.756;2023-03-01T03:12:31;3.60;62.30
10233;DHT22;5161;48.174;11.756;2023-03-01T03:14:57;3.60;62.10
10233;DHT22;5161;48.174;11.756;2023-03-01T03:17:23;3.60;62.10
10233;DHT22;5161;48.174;11.756;2023-03-01T03:19:48;3.60;62.00
10233;DHT22;5161;48.174;11.756;2023-03-01T03:22:14;3.50;61.80
10233;DHT22;5161;48.174;11.756;2023-03-01T03:24:40;3.50;61.80
10233;DHT22;5161;48.174;11.756;2023-03-01T03:27:06;3.50;61.90
10233;DHT22;5161;48.174;11.756;2023-03-01T03:29:32;3.50;62.00
10233;DHT22;5161;48.174;11.756;2023-03-01T03:31:58;3.50;61.80
10233;DHT22;5161;48.174;11.756;2023-03-01T03:34:24;3.50;61.90
10233;DHT22;5161;48.174;11.756;2023-03-01T03:36:54;3.50;62.00
10233;DHT22;5161;48.174;11.756;2023-03-01T03:39:23;3.50;62.10
10233;DHT22;5161;48.174;11.756;2023-03-01T03:41:48;3.50;61.80
10233;DHT22;5161;48.174;11.756;2023-03-01T03:44:14;3.50;61.60
10233;DHT22;5161;48.174;11.756;2023-03-01T03:46:39;3.50;61.70
10233;DHT22;5161;48.174;11.756;2023-03-01T03:49:05;3.50;61.70
10233;DHT22;5161;48.174;11.756;2023-03-01T03:51:31;3.50;61.60
10233;DHT22;5161;48.174;11.756;2023-03-01T03:53:56;3.40;61.60
10233;DHT22;5161;48.174;11.756;2023-03-01T03:56:22;3.50;61.70
10233;DHT22;5161;48.174;11.756;2023-03-01T03:58:51;3.50;61.60
10233;DHT22;5161;48.174;11.756;2023-03-01T04:01:17;3.40;61.30
10233;DHT22;5161;48.174;11.756;2023-03-01T04:03:43;3.40;61.40
10233;DHT22;5161;48.174;11.756;2023-03-01T04:06:13;3.40;61.40
10233;DHT22;5161;48.174;11.756;2023-03-01T04:08:38;3.30;61.40
10233;DHT22;5161;48.174;11.756;2023-03-01T04:11:05;3.40;61.50
10233;DHT22;5161;48.174;11.756;2023-03-01T04:13:50;3.40;61.50
10233;DHT22;5161;48.174;11.756;2023-03-01T04:16:17;3.40;61.60
10233;DHT22;5161;48.174;11.756;2023-03-01T04:18:43;3.30;61.40
10233;DHT22;5161;48.174;11.756;2023-03-01T04:21:09;3.30;61.50
10233;DHT22;5161;48.174;11.756;2023-03-01T04:23:35;3.30;61.30
10233;DHT22;5161;48.174;11.756;2023-03-01T04:26:01;3.20;61.30
10233;DHT22;5161;48.174;11.756;2023-03-01T04:28:33;3.30;61.50
10233;DHT22;5161;48.174;11.756;2023-03-01T04:31:04;3.20;61.50
10233;DHT22;5161;48.174;11.756;2023-03-01T04:33:44;3.20;61.60
10233;DHT22;5161;48.174;11.756;2023-03-01T04:36:11;3.10;62.40
10233;DHT22;5161;48.174;11.756;2023-03-01T04:38:37;3.10;61.30
10233;DHT22;5161;48.174;11.756;2023-03-01T04:41:05;3.10;61.50
10233;DHT22;5161;48.174;11.756;2023-03-01T04:43:31;3.10;61.50
10233;DHT22;5161;48.174;11.756;2023-03-01T04:46:02;3.00;61.30
10233;DHT22;5161;48.174;11.756;2023-03-01T04:48:29;3.00;62.40
10233;DHT22;5161;48.174;11.756;2023-03-01T04:50:54;3.00;61.20
10233;DHT22;5161;48.174;11.756;2023-03-01T04:53:20;2.90;61.00
10233;DHT22;5161;48.174;11.756;2023-03-01T04:55:45;2.90;61.30
10233;DHT22;5161;48.174;11.756;2023-03-01T04:58:11;2.90;61.20
10233;DHT22;5161;48.174;11.756;2023-03-01T05:00:37;2.90;61.20
10233;DHT22;5161;48.174;11.756;2023-03-01T05:03:02;2.80;61.10
10233;DHT22;5161;48.174;11.756;2023-03-01T05:05:30;2.80;61.30
10233;DHT22;5161;48.174;11.756;2023-03-01T05:07:59;2.70;61.30
10233;DHT22;5161;48.174;11.756;2023-03-01T05:10:27;2.70;62.10
10233;DHT22;5161;48.174;11.756;2023-03-01T05:12:55;2.70;62.30
10233;DHT22;5161;48.174;11.756;2023-03-01T05:15:23;2.70;62.10
10233;DHT22;5161;48.174;11.756;2023-03-01T05:17:51;2.70;62.30
10233;DHT22;5161;48.174;11.756;2023-03-01T05:20:17;2.70;62.30
10233;DHT22;5161;48.174;11.756;2023-03-01T05:22:43;2.70;61.60
10233;DHT22;5161;48.174;11.756;2023-03-01T05:25:09;2.60;62.00
10233;DHT22;5161;48.174;11.756;2023-03-01T05:27:35;2.50;61.70
10233;DHT22;5161;48.174;11.756;2023-03-01T05:30:02;2.50;62.10
10233;DHT22;5161;48.174;11.756;2023-03-01T05:32:40;2.60;62.30
10233;DHT22;5161;48.174;11.756;2023-03-01T05:35:06;2.50;62.10
10233;DHT22;5161;48.174;11.756;2023-03-01T05:37:32;2.50;61.90
10233;DHT22;5161;48.174;11.756;2023-03-01T05:39:57;2.50;62.00
10233;DHT22;5161;48.174;11.756;2023-03-01T05:42:23;2.40;61.70
10233;DHT22;5161;48.174;11.756;2023-03-01T05:44:48;2.30;61.80
10233;DHT22;5161;48.174;11.756;2023-03-01T05:47:14;2.30;62.10
10233;DHT22;5161;48.174;11.756;2023-03-01T05:49:39;2.30;62.10
10233;DHT22;5161;48.174;11.756;2023-03-01T05:52:05;2.40;62.30
10233;DHT22;5161;48.174;11.756;2023-03-01T05:54:31;2.40;62.20
10233;DHT22;5161;48.174;11.756;2023-03-01T05:56:56;2.40;62.10
10233;DHT22;5161;48.174;11.756;2023-03-01T05:59:22;2.40;61.90
10233;DHT22;5161;48.174;11.756;2023-03-01T06:01:47;2.40;62.00
10233;DHT22;5161;48.174;11.756;2023-03-01T06:04:13;2.50;62.20
10233;DHT22;5161;48.174;11.756;2023-03-01T06:06:38;2.50;62.00
10233;DHT22;5161;48.174;11.756;2023-03-01T06:09:06;2.50;62.20
10233;DHT22;5161;48.174;11.756;2023-03-01T06:11:34;2.40;62.70
10233;DHT22;5161;48.174;11.756;2023-03-01T06:13:59;2.40;62.30
10233;DHT22;5161;48.174;11.756;2023-03-01T06:16:25;2.40;61.80
10233;DHT22;5161;48.174;11.756;2023-03-01T06:18:50;2.40;62.30
10233;DHT22;5161;48.174;11.756;2023-03-01T06:21:16;2.40;62.30
10233;DHT22;5161;48.174;11.756;2023-03-01T06:23:41;2.40;62.20
10233;DHT22;5161;48.174;11.756;2023-03-01T06:26:08;2.40;62.10
10233;DHT22;5161;48.174;11.756;2023-03-01T06:28:34;2.30;62.00
10233;DHT22;5161;48.174;11.756;2023-03-01T06:31:00;2.30;62.30
10233;DHT22;5161;48.174;11.756;2023-03-01T06:33:25;2.30;62.20
10233;DHT22;5161;48.174;11.756;2023-03-01T06:35:54;2.30;62.30
10233;DHT22;5161;48.174;11.756;2023-03-01T06:38:20;2.30;62.30
10233;DHT22;5161;48.174;11.756;2023-03-01T06:40:52;2.30;62.50
10233;DHT22;5161;48.174;11.756;2023-03-01T06:43:19;2.30;62.50
10233;DHT22;5161;48.174;11.756;2023-03-01T06:45:45;2.30;62.30
10233;DHT22;5161;48.174;11.756;2023-03-01T06:48:11;2.30;62.40
10233;DHT22;5161;48.174;11.756;2023-03-01T06:50:37;2.40;62.60
10233;DHT22;5161;48.174;11.756;2023-03-01T06:53:03;2.40;62.60
10233;DHT22;5161;48.174;11.756;2023-03-01T06:55:29;2.40;62.30
10233;DHT22;5161;48.174;11.756;2023-03-01T06:57:59;2.40;62.70
10233;DHT22;5161;48.174;11.756;2023-03-01T07:00:25;2.50;62.50
10233;DHT22;5161;48.174;11.756;2023-03-01T07:02:52;2.50;61.30
10233;DHT22;5161;48.174;11.756;2023-03-01T07:05:17;2.50;62.10
10233;DHT22;5161;48.174;11.756;2023-03-01T07:07:43;2.40;62.30
10233;DHT22;5161;48.174;11.756;2023-03-01T07:10:10;2.40;62.40
10233;DHT22;5161;48.174;11.756;2023-03-01T07:12:36;2.50;62.60
10233;DHT22;5161;48.174;11.756;2023-03-01T07:15:02;2.40;62.50
10233;DHT22;5161;48.174;11.756;2023-03-01T07:17:28;2.50;62.70
10233;DHT22;5161;48.174;11.756;2023-03-01T07:19:54;2.50;62.60
10233;DHT22;5161;48.174;11.756;2023-03-01T07:22:19;2.60;62.70
10233;DHT22;5161;48.174;11.756;2023-03-01T07:24:45;2.60;62.50
10233;DHT22;5161;48.174;11.756;2023-03-01T07:27:10;2.60;62.60
10233;DHT22;5161;48.174;11.756;2023-03-01T07:29:36;2.60;62.20
10233;DHT22;5161;48.174;11.756;2023-03-01T07:32:03;2.60;62.00
10233;DHT22;5161;48.174;11.756;2023-03-01T07:34:29;2.60;62.00
10233;DHT22;5161;48.174;11.756;2023-03-01T07:36:54;2.50;61.70
10233;DHT22;5161;48.174;11.756;2023-03-01T07:39:21;2.50;61.70
10233;DHT22;5161;48.174;11.756;2023-03-01T07:41:48;2.40;61.80
10233;DHT22;5161;48.174;11.756;2023-03-01T07:44:14;2.40;62.20
10233;DHT22;5161;48.174;11.756;2023-03-01T07:46:40;2.50;62.40
10233;DHT22;5161;48.174;11.756;2023-03-01T07:49:06;2.40;61.70
10233;DHT22;5161;48.174;11.756;2023-03-01T07:51:32;2.30;61.80
10233;DHT22;5161;48.174;11.756;2023-03-01T07:53:57;2.30;61.80
10233;DHT22;5161;48.174;11.756;2023-03-01T07:56:23;2.20;61.70
10233;DHT22;5161;48.174;11.756;2023-03-01T07:58:48;2.30;62.00
10233;DHT22;5161;48.174;11.756;2023-03-01T08:01:17;2.30;62.00
10233;DHT22;5161;48.174;11.756;2023-03-01T08:03:42;2.30;62.20
10233;DHT22;5161;48.174;11.756;2023-03-01T08:06:12;2.30;62.10
10233;DHT22;5161;48.174;11.756;2023-03-01T08:08:39;2.20;62.90
10233;DHT22;5161;48.174;11.756;2023-03-01T08:11:06;2.20;62.00
10233;DHT22;5161;48.174;11.756;2023-03-01T08:13:33;2.30;62.60
10233;DHT22;5161;48.174;11.756;2023-03-01T08:16:10;2.30;62.40
10233;DHT22;5161;48.174;11.756;2023-03-01T08:18:36;2.40;61.40
10233;DHT22;5161;48.174;11.756;2023-03-01T08:21:07;2.40;62.30
10233;DHT22;5161;48.174;11.756;2023-03-01T08:23:33;2.40;62.60
10233;DHT22;5161;48.174;11.756;2023-03-01T08:28:32;2.50;62.80
10233;DHT22;5161;48.174;11.756;2023-03-01T08:30:58;2.60;62.40
10233;DHT22;5161;48.174;11.756;2023-03-01T08:33:23;2.70;62.20
10233;DHT22;5161;48.174;11.756;2023-03-01T08:35:49;2.80;61.70
10233;DHT22;5161;48.174;11.756;2023-03-01T08:38:14;2.80;61.40
10233;DHT22;5161;48.174;11.756;2023-03-01T08:40:40;2.80;60.90
10233;DHT22;5161;48.174;11.756;2023-03-01T08:43:05;2.80;61.30
10233;DHT22;5161;48.174;11.756;2023-03-01T08:45:31;2.80;61.50
10233;DHT22;5161;48.174;11.756;2023-03-01T08:47:57;2.80;61.80
10233;DHT22;5161;48.174;11.756;2023-03-01T08:50:23;2.80;61.60
10233;DHT22;5161;48.174;11.756;2023-03-01T08:52:50;2.80;62.20
10233;DHT22;5161;48.174;11.756;2023-03-01T08:55:16;2.90;62.40
10233;DHT22;5161;48.174;11.756;2023-03-01T08:57:43;2.90;62.40
10233;DHT22;5161;48.174;11.756;2023-03-01T09:00:09;2.90;62.20
10233;DHT22;5161;48.174;11.756;2023-03-01T09:02:37;2.90;62.50
10233;DHT22;5161;48.174;11.756;2023-03-01T09:05:03;2.90;62.60
10233;DHT22;5161;48.174;11.756;2023-03-01T09:07:28;3.00;62.20
10233;DHT22;5161;48.174;11.756;2023-03-01T09:09:54;3.00;62.40
10233;DHT22;5161;48.174;11.756;2023-03-01T09:12:21;3.00;61.90
10233;DHT22;5161;48.174;11.756;2023-03-01T09:14:49;3.00;62.30
10233;DHT22;5161;48.174;11.756;2023-03-01T09:17:15;3.00;62.30
10233;DHT22;5161;48.174;11.756;2023-03-01T09:19:40;3.00;62.90
10233;DHT22;5161;48.174;11.756;2023-03-01T09:22:06;3.10;62.60
10233;DHT22;5161;48.174;11.756;2023-03-01T09:24:32;3.10;62.60
10233;DHT22;5161;48.174;11.756;2023-03-01T09:26:58;3.10;62.40
10233;DHT22;5161;48.174;11.756;2023-03-01T09:29:24;3.10;62.00
10233;DHT22;5161;48.174;11.756;2023-03-01T09:31:49;3.20;62.50
10233;DHT22;5161;48.174;11.756;2023-03-01T09:34:15;3.20;62.30
10233;DHT22;5161;48.174;11.756;2023-03-01T09:36:44;3.30;62.30
10233;DHT22;5161;48.174;11.756;2023-03-01T09:39:10;3.30;61.80
10233;DHT22;5161;48.174;11.756;2023-03-01T09:47:05;3.20;62.50
10233;DHT22;5161;48.174;11.756;2023-03-01T09:49:38;3.20;62.80
10233;DHT22;5161;48.174;11.756;2023-03-01T09:54:44;3.40;63.70
10233;DHT22;5161;48.174;11.756;2023-03-01T09:57:18;3.50;62.50
10233;DHT22;5161;48.174;11.756;2023-03-01T10:02:49;3.30;62.40
10233;DHT22;5161;48.174;11.756;2023-03-01T10:05:35;3.20;62.30
10233;DHT22;5161;48.174;11.756;2023-03-01T10:08:19;3.30;64.00
10233;DHT22;5161;48.174;11.756;2023-03-01T10:10:48;3.50;63.50
10233;DHT22;5161;48.174;11.756;2023-03-01T10:13:25;3.50;62.80
10233;DHT22;5161;48.174;11.756;2023-03-01T10:16:22;3.50;62.70
10233;DHT22;5161;48.174;11.756;2023-03-01T10:18:55;3.60;63.10
10233;DHT22;5161;48.174;11.756;2023-03-01T10:21:23;3.70;63.20
10233;DHT22;5161;48.174;11.756;2023-03-01T10:23:52;3.80;62.50
10233;DHT22;5161;48.174;11.756;2023-03-01T10:26:48;3.80;63.40
10233;DHT22;5161;48.174;11.756;2023-03-01T10:29:16;3.90;63.60
10233;DHT22;5161;48.174;11.756;2023-03-01T10:31:46;4.10;62.80
10233;DHT22;5161;48.174;11.756;2023-03-01T10:34:34;4.20;63.00
10233;DHT22;5161;48.174;11.756;2023-03-01T10:37:15;4.30;63.30
10233;DHT22;5161;48.174;11.756;2023-03-01T10:40:05;4.40;63.70
10233;DHT22;5161;48.174;11.756;2023-03-01T10:42:37;4.50;63.50
10233;DHT22;5161;48.174;11.756;2023-03-01T10:45:29;4.70;62.20
10233;DHT22;5161;48.174;11.756;2023-03-01T10:48:12;4.80;63.10
10233;DHT22;5161;48.174;11.756;2023-03-01T10:50:43;4.80;62.30
10233;DHT22;5161;48.174;11.756;2023-03-01T10:56:09;5.00;63.00
10233;DHT22;5161;48.174;11.756;2023-03-01T10:58:37;5.10;62.30
10233;DHT22;5161;48.174;11.756;2023-03-01T11:01:05;5.20;61.70
10233;DHT22;5161;48.174;11.756;2023-03-01T11:03:38;5.10;61.50
10233;DHT22;5161;48.174;11.756;2023-03-01T11:08:46;5.10;61.60
10233;DHT22;5161;48.174;11.756;2023-03-01T11:13:50;5.20;62.10
10233;DHT22;5161;48.174;11.756;2023-03-01T11:16:29;5.30;61.80
10233;DHT22;5161;48.174;11.756;2023-03-01T11:21:40;5.30;62.10
10233;DHT22;5161;48.174;11.756;2023-03-01T11:24:11;5.30;60.90
10233;DHT22;5161;48.174;11.756;2023-03-01T11:26:40;5.20;61.20
10233;DHT22;5161;48.174;11.756;2023-03-01T11:29:37;5.20;61.70
10233;DHT22;5161;48.174;11.756;2023-03-01T11:32:07;5.40;63.00
10233;DHT22;5161;48.174;11.756;2023-03-01T11:38:22;5.80;62.20
10233;DHT22;5161;48.174;11.756;2023-03-01T11:40:57;5.90;61.70
10233;DHT22;5161;48.174;11.756;2023-03-01T11:43:41;6.20;62.00
10233;DHT22;5161;48.174;11.756;2023-03-01T11:57:03;7.50;63.20
10233;DHT22;5161;48.174;11.756;2023-03-01T12:05:17;8.60;61.10
10233;DHT22;5161;48.174;11.756;2023-03-01T12:08:11;8.50;60.60
10233;DHT22;5161;48.174;11.756;2023-03-01T12:16:30;9.30;60.30
10233;DHT22;5161;48.174;11.756;2023-03-01T12:19:07;9.50;60.60
10233;DHT22;5161;48.174;11.756;2023-03-01T12:28:00;9.70;59.80
10233;DHT22;5161;48.174;11.756;2023-03-01T12:30:44;10.00;58.80
10233;DHT22;5161;48.174;11.756;2023-03-01T12:33:38;10.30;58.80
10233;DHT22;5161;48.174;11.756;2023-03-01T12:47:34;10.90;57.50
10233;DHT22;5161;48.174;11.756;2023-03-01T12:50:21;11.10;57.40
10233;DHT22;5161;48.174;11.756;2023-03-01T12:52:54;11.30;56.20
10233;DHT22;5161;48.174;11.756;2023-03-01T12:55:37;11.10;56.30
10233;DHT22;5161;48.174;11.756;2023-03-01T13:04:16;11.10;56.60
10233;DHT22;5161;48.174;11.756;2023-03-01T13:06:44;11.20;55.50
10233;DHT22;5161;48.174;11.756;2023-03-01T13:11:42;11.20;54.90
10233;DHT22;5161;48.174;11.756;2023-03-01T13:16:47;11.20;56.00
10233;DHT22;5161;48.174;11.756;2023-03-01T13:21:43;10.90;55.50
10233;DHT22;5161;48.174;11.756;2023-03-01T13:24:27;11.00;56.00
10233;DHT22;5161;48.174;11.756;2023-03-01T13:32:34;11.10;55.40
10233;DHT22;5161;48.174;11.756;2023-03-01T13:37:44;11.50;56.00
10233;DHT22;5161;48.174;11.756;2023-03-01T13:42:45;11.70;55.60
10233;DHT22;5161;48.174;11.756;2023-03-01T13:45:39;11.80;55.40
10233;DHT22;5161;48.174;11.756;2023-03-01T13:48:28;11.70;54.90
10233;DHT22;5161;48.174;11.756;2023-03-01T13:50:59;11.60;55.50
10233;DHT22;5161;48.174;11.756;2023-03-01T13:53:27;11.60;55.60
10233;DHT22;5161;48.174;11.756;2023-03-01T13:55:58;11.70;55.70
10233;DHT22;5161;48.174;11.756;2023-03-01T13:58:33;11.60;55.20
10233;DHT22;5161;48.174;11.756;2023-03-01T14:01:24;11.50;54.70
10233;DHT22;5161;48.174;11.756;2023-03-01T14:03:52;11.40;55.10
10233;DHT22;5161;48.174;11.756;2023-03-01T14:06:29;11.40;55.10
10233;DHT22;5161;48.174;11.756;2023-03-01T14:09:09;11.40;55.00
10233;DHT22;5161;48.174;11.756;2023-03-01T14:17:42;11.40;55.60
10233;DHT22;5161;48.174;11.756;2023-03-01T14:22:46;11.60;55.50
10233;DHT22;5161;48.174;11.756;2023-03-01T14:25:36;11.70;55.70
10233;DHT22;5161;48.174;11.756;2023-03-01T14:28:26;11.80;55.00
10233;DHT22;5161;48.174;11.756;2023-03-01T14:30:57;11.60;55.30
10233;DHT22;5161;48.174;11.756;2023-03-01T14:33:32;11.60;55.40
10233;DHT22;5161;48.174;11.756;2023-03-01T14:36:13;11.60;56.00
10233;DHT22;5161;48.174;11.756;2023-03-01T14:38:42;11.80;55.80
10233;DHT22;5161;48.174;11.756;2023-03-01T14:41:12;11.80;55.50
10233;DHT22;5161;48.174;11.756;2023-03-01T14:43:44;11.70;55.20
10233;DHT22;5161;48.174;11.756;2023-03-01T14:46:21;11.80;55.80
10233;DHT22;5161;48.174;11.756;2023-03-01T14:48:53;11.70;55.10
10233;DHT22;5161;48.174;11.756;2023-03-01T14:51:19;11.70;55.90
10233;DHT22;5161;48.174;11.756;2023-03-01T14:53:45;11.70;56.00
10233;DHT22;5161;48.174;11.756;2023-03-01T14:56:16;11.70;55.50
10233;DHT22;5161;48.174;11.756;2023-03-01T14:58:43;11.70;55.90
10233;DHT22;5161;48.174;11.756;2023-03-01T15:01:15;11.70;55.60
10233;DHT22;5161;48.174;11.756;2023-03-01T15:03:47;11.70;55.90
10233;DHT22;5161;48.174;11.756;2023-03-01T15:06:22;11.60;55.30
10233;DHT22;5161;48.174;11.756;2023-03-01T15:08:51;11.50;55.60
10233;DHT22;5161;48.174;11.756;2023-03-01T15:11:29;11.50;55.70
10233;DHT22;5161;48.174;11.756;2023-03-01T15:13:56;11.40;55.50
10233;DHT22;5161;48.174;11.756;2023-03-01T15:16:33;11.40;55.50
10233;DHT22;5161;48.174;11.756;2023-03-01T15:19:05;11.30;55.90
10233;DHT22;5161;48.174;11.756;2023-03-01T15:21:38;11.30;56.00
10233;DHT22;5161;48.174;11.756;2023-03-01T15:24:17;11.30;56.20
10233;DHT22;5161;48.174;11.756;2023-03-01T15:26:57;11.30;56.20
10233;DHT22;5161;48.174;11.756;2023-03-01T15:29:33;11.30;55.90
10233;DHT22;5161;48.174;11.756;2023-03-01T15:32:26;11.10;55.90
10233;DHT22;5161;48.174;11.756;2023-03-01T15:34:52;11.00;56.00
10233;DHT22;5161;48.174;11.756;2023-03-01T15:37:39;11.00;56.20
10233;DHT22;5161;48.174;11.756;2023-03-01T15:40:23;11.00;56.10
10233;DHT22;5161;48.174;11.756;2023-03-01T15:42:57;10.90;56.30
10233;DHT22;5161;48.174;11.756;2023-03-01T15:45:25;10.90;56.30
10233;DHT22;5161;48.174;11.756;2023-03-01T15:47:57;10.80;56.20
10233;DHT22;5161;48.174;11.756;2023-03-01T15:50:29;10.80;56.20
10233;DHT22;5161;48.174;11.756;2023-03-01T15:52:56;10.70;56.00
10233;DHT22;5161;48.174;11.756;2023-03-01T15:55:29;10.60;56.30
10233;DHT22;5161;48.174;11.756;2023-03-01T15:58:09;10.60;56.50
10233;DHT22;5161;48.174;11.756;2023-03-01T16:00:36;10.60;56.40
10233;DHT22;5161;48.174;11.756;2023-03-01T16:03:03;10.50;56.50
10233;DHT22;5161;48.174;11.756;2023-03-01T16:05:31;10.50;56.50
10233;DHT22;5161;48.174;11.756;2023-03-01T16:07:57;10.40;56.50
10233;DHT22;5161;48.174;11.756;2023-03-01T16:10:23;10.30;56.30
10233;DHT22;5161;48.174;11.756;2023-03-01T16:12:50;10.10;56.50
10233;DHT22;5161;48.174;11.756;2023-03-01T16:17:53;9.90;57.50
10233;DHT22;5161;48.174;11.756;2023-03-01T16:20:19;9.90;57.60
10233;DHT22;5161;48.174;11.756;2023-03-01T16:22:48;9.80;57.70
10233;DHT22;5161;48.174;11.756;2023-03-01T16:25:16;9.70;57.80
10233;DHT22;5161;48.174;11.756;2023-03-01T16:27:44;9.70;57.90
10233;DHT22;5161;48.174;11.756;2023-03-01T16:30:10;9.60;57.80
10233;DHT22;5161;48.174;11.756;2023-03-01T16:32:40;9.60;58.10
10233;DHT22;5161;48.174;11.756;2023-03-01T16:35:07;9.50;58.20
10233;DHT22;5161;48.174;11.756;2023-03-01T16:37:34;9.40;58.20
10233;DHT22;5161;48.174;11.756;2023-03-01T16:40:00;9.40;58.30
10233;DHT22;5161;48.174;11.756;2023-03-01T16:42:26;9.30;58.30
10233;DHT22;5161;48.174;11.756;2023-03-01T16:44:56;9.20;58.20
10233;DHT22;5161;48.174;11.756;2023-03-01T16:47:24;9.20;58.40
10233;DHT22;5161;48.174;11.756;2023-03-01T16:49:53;9.20;58.50
10233;DHT22;5161;48.174;11.756;2023-03-01T16:52:20;9.20;58.70
10233;DHT22;5161;48.174;11.756;2023-03-01T16:54:48;9.10;58.60
10233;DHT22;5161;48.174;11.756;2023-03-01T16:57:14;9.00;58.50
10233;DHT22;5161;48.174;11.756;2023-03-01T16:59:43;9.00;58.60
10233;DHT22;5161;48.174;11.756;2023-03-01T17:02:20;8.90;58.60
10233;DHT22;5161;48.174;11.756;2023-03-01T17:04:52;8.80;58.60
10233;DHT22;5161;48.174;11.756;2023-03-01T17:07:23;8.80;58.80
10233;DHT22;5161;48.174;11.756;2023-03-01T17:09:49;8.80;59.00
10233;DHT22;5161;48.174;11.756;2023-03-01T17:12:17;8.70;58.90
10233;DHT22;5161;48.174;11.756;2023-03-01T17:14:43;8.70;59.00
10233;DHT22;5161;48.174;11.756;2023-03-01T17:17:10;8.60;59.00
10233;DHT22;5161;48.174;11.756;2023-03-01T17:19:36;8.50;59.00
10233;DHT22;5161;48.174;11.756;2023-03-01T17:22:07;8.40;58.90
10233;DHT22;5161;48.174;11.756;2023-03-01T17:24:37;8.40;59.10
10233;DHT22;5161;48.174;11.756;2023-03-01T17:27:03;8.30;59.20
10233;DHT22;5161;48.174;11.756;2023-03-01T17:29:30;8.30;59.30
10233;DHT22;5161;48.174;11.756;2023-03-01T17:31:56;8.20;59.30
10233;DHT22;5161;48.174;11.756;2023-03-01T17:34:23;8.20;59.30
10233;DHT22;5161;48.174;11.756;2023-03-01T17:36:50;8.20;59.50
10233;DHT22;5161;48.174;11.756;2023-03-01T17:39:16;8.20;59.50
10233;DHT22;5161;48.174;11.756;2023-03-01T17:41:42;8.10;59.60
10233;DHT22;5161;48.174;11.756;2023-03-01T17:44:08;8.10;59.70
10233;DHT22;5161;48.174;11.756;2023-03-01T17:46:34;8.10;59.70
10233;DHT22;5161;48.174;11.756;2023-03-01T17:48:59;8.10;59.80
10233;DHT22;5161;48.174;11.756;2023-03-01T17:51:25;8.00;60.20
10233;DHT22;5161;48.174;11.756;2023-03-01T17:53:50;8.00;60.30